createdAt,value
2022-10-19T00:01:19.038Z,11.90
2022-10-19T00:06:27.811Z,11.07
2022-10-19T00:09:01.035Z,11.45
2022-10-19T00:11:28.880Z,11.55
2022-10-19T00:13:56.969Z,11.07
2022-10-19T00:16:29.319Z,11.88
2022-10-19T00:19:01.806Z,11.63
2022-10-19T00:21:28.940Z,10.95
2022-10-19T00:23:55.703Z,11.63
2022-10-19T00:26:22.463Z,10.80
2022-10-19T00:28:49.320Z,11.70
2022-10-19T00:31:18.042Z,11.52
2022-10-19T00:33:47.042Z,11.65
2022-10-19T00:36:19.961Z,11.52
2022-10-19T00:38:46.743Z,11.55
2022-10-19T00:41:13.644Z,11.15
2022-10-19T00:44:04.972Z,12.35
2022-10-19T00:46:34.070Z,13.07
2022-10-19T00:49:07.100Z,13.47
2022-10-19T00:51:39.374Z,12.82
2022-10-19T00:54:07.785Z,14.65
2022-10-19T00:56:36.088Z,15.40
2022-10-19T00:59:04.699Z,15.52
2022-10-19T01:01:32.970Z,14.10
2022-10-19T01:04:00.348Z,15.50
2022-10-19T01:06:27.593Z,18.70
2022-10-19T01:08:54.333Z,23.33
2022-10-19T01:11:23.852Z,19.15
2022-10-19T01:14:10.652Z,16.73
2022-10-19T01:16:51.927Z,16.38
2022-10-19T01:19:49.604Z,17.85
2022-10-19T01:22:28.197Z,19.60
2022-10-19T01:25:13.370Z,20.00
2022-10-19T01:28:03.279Z,16.02
2022-10-19T01:30:48.267Z,14.10
2022-10-19T01:33:23.472Z,14.32
2022-10-19T01:35:56.750Z,12.57
2022-10-19T01:38:36.189Z,13.23
2022-10-19T01:41:05.671Z,11.77
2022-10-19T01:43:58.213Z,12.95
2022-10-19T01:46:36.416Z,12.27
2022-10-19T01:49:32.100Z,11.32
2022-10-19T01:52:13.410Z,12.02
2022-10-19T01:54:44.362Z,12.65
2022-10-19T01:57:14.166Z,12.38
2022-10-19T01:59:42.328Z,11.98
2022-10-19T02:02:12.055Z,11.25
2022-10-19T02:04:39.997Z,11.98
2022-10-19T02:07:08.463Z,13.30
2022-10-19T02:09:35.528Z,12.70
2022-10-19T02:12:08.526Z,12.57
2022-10-19T02:14:39.761Z,13.32
2022-10-19T02:17:10.350Z,13.63
2022-10-19T02:19:37.221Z,13.52
2022-10-19T02:22:04.411Z,14.48
2022-10-19T02:24:31.336Z,15.38
2022-10-19T02:26:58.658Z,14.15
2022-10-19T02:29:25.260Z,15.30
2022-10-19T02:31:51.906Z,17.90
2022-10-19T02:34:18.727Z,16.45
2022-10-19T02:36:45.427Z,15.32
2022-10-19T02:39:12.109Z,14.10
2022-10-19T02:41:38.662Z,15.70
2022-10-19T02:44:18.611Z,14.90
2022-10-19T02:46:50.693Z,16.50
2022-10-19T02:49:18.248Z,18.30
2022-10-19T02:52:00.568Z,24.58
2022-10-19T02:54:28.264Z,21.23
2022-10-19T02:56:55.702Z,34.60
2022-10-19T02:59:22.913Z,50.08
2022-10-19T03:01:49.757Z,51.65
2022-10-19T03:04:16.683Z,28.58
2022-10-19T03:06:43.564Z,45.63
2022-10-19T03:09:10.519Z,38.78
2022-10-19T03:11:37.097Z,30.08
2022-10-19T03:14:03.763Z,37.38
2022-10-19T03:16:30.456Z,57.13
2022-10-19T03:18:57.038Z,47.75
2022-10-19T03:21:23.696Z,45.97
2022-10-19T03:23:50.295Z,47.30
2022-10-19T03:26:17.904Z,52.22
2022-10-19T03:28:44.678Z,48.25
2022-10-19T03:31:11.527Z,47.83
2022-10-19T03:33:38.124Z,51.65
2022-10-19T03:36:22.046Z,55.67
2022-10-19T03:38:53.363Z,49.05
2022-10-19T03:41:21.579Z,47.13
2022-10-19T03:43:48.451Z,48.05
2022-10-19T03:46:15.272Z,46.63
2022-10-19T03:48:42.282Z,46.67
2022-10-19T03:51:11.607Z,45.05
2022-10-19T03:53:38.265Z,43.00
2022-10-19T03:56:18.718Z,42.00
2022-10-19T03:58:47.194Z,42.25
2022-10-19T04:01:19.767Z,44.15
2022-10-19T04:03:46.875Z,39.63
2022-10-19T04:06:19.598Z,38.08
2022-10-19T04:08:49.981Z,40.25
2022-10-19T04:11:19.058Z,52.97
2022-10-19T04:13:51.917Z,50.13
2022-10-19T04:16:19.480Z,46.78
2022-10-19T04:18:46.739Z,45.28
2022-10-19T04:21:24.409Z,42.10
2022-10-19T04:23:52.564Z,42.80
2022-10-19T04:26:19.972Z,44.72
2022-10-19T04:28:46.979Z,43.45
2022-10-19T04:31:13.684Z,41.47
2022-10-19T04:33:41.140Z,38.45
2022-10-19T04:36:10.315Z,41.00
2022-10-19T04:38:37.983Z,39.22
2022-10-19T04:41:05.785Z,36.05
2022-10-19T04:43:32.782Z,36.33
2022-10-19T04:46:07.735Z,38.33
2022-10-19T04:48:35.660Z,36.20
2022-10-19T04:51:02.766Z,32.47
2022-10-19T04:53:29.397Z,36.35
2022-10-19T04:55:56.130Z,32.97
2022-10-19T04:58:22.794Z,36.22
2022-10-19T05:00:49.649Z,36.10
2022-10-19T05:03:16.823Z,32.75
2022-10-19T05:05:43.779Z,31.60
2022-10-19T05:08:10.951Z,29.80
2022-10-19T05:10:38.284Z,46.55
2022-10-19T05:13:05.512Z,34.25
2022-10-19T05:15:32.207Z,37.05
2022-10-19T05:17:58.983Z,33.88
2022-10-19T05:20:25.782Z,34.05
2022-10-19T05:22:52.487Z,27.92
2022-10-19T05:25:19.219Z,32.67
2022-10-19T05:27:45.904Z,29.38
2022-10-19T05:30:14.409Z,27.23
2022-10-19T05:32:41.118Z,26.92
2022-10-19T05:35:08.132Z,27.08
2022-10-19T05:37:35.144Z,25.38
2022-10-19T05:40:02.021Z,23.05
2022-10-19T05:42:28.640Z,25.10
2022-10-19T05:44:55.232Z,20.65
2022-10-19T05:47:21.841Z,21.05
2022-10-19T05:49:48.463Z,22.73
2022-10-19T05:52:17.705Z,22.08
2022-10-19T05:54:44.432Z,20.77
2022-10-19T05:57:11.067Z,19.83
2022-10-19T05:59:37.738Z,21.38
2022-10-19T06:02:04.452Z,20.38
2022-10-19T06:04:31.082Z,20.60
2022-10-19T06:06:57.668Z,17.77
2022-10-19T06:09:24.378Z,18.00
2022-10-19T06:11:50.959Z,18.27
2022-10-19T06:14:17.592Z,18.95
2022-10-19T06:16:46.058Z,17.70
2022-10-19T06:19:12.895Z,16.15
2022-10-19T06:21:41.911Z,16.65
2022-10-19T06:24:13.116Z,17.00
2022-10-19T06:26:39.842Z,17.27
2022-10-19T06:29:06.559Z,16.38
2022-10-19T06:31:35.727Z,21.15
2022-10-19T06:34:02.975Z,19.77
2022-10-19T06:36:31.563Z,18.30
2022-10-19T06:39:00.030Z,17.08
2022-10-19T06:41:26.732Z,16.90
2022-10-19T06:43:54.968Z,16.98
2022-10-19T06:46:23.842Z,19.00
2022-10-19T06:48:55.073Z,17.88
2022-10-19T06:51:22.945Z,18.08
2022-10-19T06:53:54.201Z,18.23
2022-10-19T06:56:24.701Z,19.27
2022-10-19T06:58:51.815Z,17.65
2022-10-19T07:01:18.532Z,19.02
2022-10-19T07:03:45.275Z,17.80
2022-10-19T07:06:13.295Z,17.05
2022-10-19T07:08:41.991Z,17.88
2022-10-19T07:11:11.897Z,17.58
2022-10-19T07:16:15.837Z,17.13
2022-10-19T07:18:46.732Z,16.98
2022-10-19T07:21:16.338Z,17.42
2022-10-19T07:23:45.076Z,18.05
2022-10-19T07:26:17.279Z,17.20
2022-10-19T07:28:46.452Z,17.38
2022-10-19T07:31:15.382Z,16.92
2022-10-19T07:33:42.000Z,17.13
2022-10-19T07:36:10.643Z,16.80
2022-10-19T07:38:37.648Z,17.52
2022-10-19T07:41:13.471Z,16.00
2022-10-19T07:43:41.299Z,17.35
2022-10-19T07:46:11.783Z,17.30
2022-10-19T07:48:38.513Z,17.17
2022-10-19T07:51:07.313Z,17.30
2022-10-19T07:53:35.171Z,17.33
2022-10-19T07:56:08.948Z,16.48
2022-10-19T07:58:36.607Z,16.00
2022-10-19T08:01:05.658Z,15.32
2022-10-19T08:06:20.815Z,14.70
2022-10-19T08:08:48.843Z,16.35
2022-10-19T08:11:21.148Z,17.27
2022-10-19T08:13:48.626Z,16.63
2022-10-19T08:16:40.443Z,16.15
2022-10-19T08:19:16.473Z,15.65
2022-10-19T08:21:45.874Z,16.95
2022-10-19T08:24:14.894Z,16.15
2022-10-19T08:26:42.222Z,16.75
2022-10-19T08:29:20.139Z,16.23
2022-10-19T08:31:48.865Z,16.70
2022-10-19T08:34:16.135Z,16.83
2022-10-19T08:36:42.909Z,16.52
2022-10-19T08:39:12.605Z,16.00
2022-10-19T08:42:13.153Z,14.57
2022-10-19T08:44:58.373Z,14.52
2022-10-19T08:47:55.581Z,15.25
2022-10-19T08:50:26.935Z,15.80
2022-10-19T08:53:16.625Z,15.23
2022-10-19T08:56:07.513Z,15.07
2022-10-19T08:59:00.300Z,15.00
2022-10-19T09:02:00.863Z,15.15
2022-10-19T09:04:36.142Z,15.43
2022-10-19T09:07:14.776Z,14.75
2022-10-19T09:09:51.265Z,14.90
2022-10-19T09:12:24.825Z,14.85
2022-10-19T09:15:00.421Z,14.30
2022-10-19T09:17:28.832Z,14.07
2022-10-19T09:19:55.983Z,14.45
2022-10-19T09:22:29.496Z,14.68
2022-10-19T09:25:08.699Z,13.55
2022-10-19T09:27:39.460Z,14.15
2022-10-19T09:30:28.034Z,13.93
2022-10-19T09:33:04.188Z,12.85
2022-10-19T09:35:37.298Z,13.70
2022-10-19T09:38:06.685Z,13.43
2022-10-19T09:40:35.290Z,14.00
2022-10-19T09:43:19.188Z,15.70
2022-10-19T09:46:24.481Z,14.50
2022-10-19T09:48:52.854Z,15.63
2022-10-19T09:51:21.305Z,13.52
2022-10-19T09:53:52.228Z,13.57
2022-10-19T09:56:20.097Z,14.77
2022-10-19T09:58:58.163Z,11.98
2022-10-19T10:01:43.819Z,12.73
2022-10-19T10:04:15.808Z,12.23
2022-10-19T10:06:44.924Z,19.80
2022-10-19T10:09:22.281Z,11.25
2022-10-19T10:11:50.909Z,11.60
2022-10-19T10:14:28.862Z,11.32
2022-10-19T10:16:57.470Z,10.82
2022-10-19T10:19:28.833Z,10.73
2022-10-19T10:21:57.918Z,10.50
2022-10-19T10:24:30.245Z,10.77
2022-10-19T10:27:06.169Z,11.45
2022-10-19T10:29:39.416Z,10.02
2022-10-19T10:32:18.362Z,9.73
2022-10-19T10:34:57.306Z,10.10
2022-10-19T10:37:42.662Z,8.75
2022-10-19T10:40:27.144Z,9.77
2022-10-19T10:42:56.965Z,9.00
2022-10-19T10:45:29.287Z,8.38
2022-10-19T10:47:57.987Z,8.30
2022-10-19T10:50:32.548Z,7.93
2022-10-19T10:53:26.653Z,8.43
2022-10-19T10:55:57.143Z,8.30
2022-10-19T10:58:36.061Z,8.57
2022-10-19T11:57:28.184Z,8.15
2022-10-19T12:00:15.030Z,8.32
2022-10-19T12:03:05.872Z,8.70
2022-10-19T12:05:51.104Z,8.10
2022-10-19T12:08:22.719Z,8.02
2022-10-19T12:11:07.518Z,9.45
2022-10-19T12:13:46.640Z,7.90
2022-10-19T12:16:14.847Z,7.32
2022-10-19T12:18:48.940Z,7.10
2022-10-19T12:21:27.221Z,6.82
2022-10-19T12:23:57.055Z,7.38
2022-10-19T12:26:24.881Z,6.60
2022-10-19T12:28:55.952Z,6.40
2022-10-19T12:31:25.012Z,6.45
2022-10-19T12:34:04.239Z,6.10
2022-10-19T12:36:55.003Z,7.60
2022-10-19T12:39:30.983Z,7.78
2022-10-19T12:42:30.506Z,7.50
2022-10-19T12:45:13.724Z,5.68
2022-10-19T12:47:40.955Z,4.90
2022-10-19T12:50:08.027Z,5.05
2022-10-19T12:52:36.761Z,5.18
2022-10-19T12:55:15.542Z,5.82
2022-10-19T12:58:06.548Z,6.97
2022-10-19T13:00:38.260Z,7.03
2022-10-19T13:03:14.422Z,6.82
2022-10-19T13:05:41.760Z,6.82
2022-10-19T13:08:12.107Z,6.97
2022-10-19T13:10:41.176Z,6.60
2022-10-19T13:13:46.027Z,6.47
2022-10-19T13:16:33.420Z,7.20
2022-10-19T13:19:00.142Z,5.70
2022-10-19T13:22:02.229Z,4.80
2022-10-19T13:24:37.256Z,4.45
2022-10-19T13:27:03.976Z,4.78
2022-10-19T13:29:41.305Z,4.40
2022-10-19T13:32:35.911Z,4.72
2022-10-19T13:35:23.249Z,5.03
2022-10-19T13:38:18.281Z,5.82
2022-10-19T13:40:47.877Z,6.25
2022-10-19T13:43:26.087Z,6.55
2022-10-19T13:45:58.979Z,6.68
2022-10-19T13:48:49.248Z,9.43
2022-10-19T13:51:44.848Z,6.72
2022-10-19T13:54:17.315Z,6.70
2022-10-19T13:57:16.969Z,6.53
2022-10-19T14:03:19.288Z,6.90
2022-10-19T14:06:07.560Z,6.57
2022-10-19T14:08:58.775Z,6.68
2022-10-19T14:11:31.201Z,6.47
2022-10-19T14:14:09.109Z,6.53
2022-10-19T14:16:46.335Z,6.47
2022-10-19T14:19:14.899Z,6.35
2022-10-19T14:21:41.573Z,6.40
2022-10-19T14:24:28.325Z,6.35
2022-10-19T14:26:55.825Z,6.28
2022-10-19T14:29:22.489Z,6.43
2022-10-19T14:31:49.298Z,7.05
2022-10-19T14:34:16.458Z,5.80
2022-10-19T14:36:48.397Z,6.00
2022-10-19T14:39:57.115Z,5.85
2022-10-19T14:42:23.869Z,6.05
2022-10-19T14:44:50.697Z,6.30
2022-10-19T14:47:27.324Z,6.30
2022-10-19T14:49:53.983Z,6.28
2022-10-19T14:55:04.459Z,6.05
2022-10-19T14:57:35.258Z,6.22
2022-10-19T15:00:05.995Z,5.65
2022-10-19T15:02:45.013Z,5.97
2022-10-19T15:05:23.828Z,5.40
2022-10-19T15:07:51.227Z,5.00
2022-10-19T15:10:24.543Z,5.05
2022-10-19T15:12:52.884Z,4.97
2022-10-19T15:15:24.788Z,5.70
2022-10-19T15:17:54.421Z,4.93
2022-10-19T15:20:30.063Z,4.78
2022-10-19T15:22:58.639Z,5.45
2022-10-19T15:25:43.396Z,5.50
2022-10-19T15:28:23.880Z,6.20
2022-10-19T15:31:06.604Z,7.82
2022-10-19T15:33:43.395Z,4.85
2022-10-19T15:36:19.652Z,4.55
2022-10-19T15:39:11.398Z,4.10
2022-10-19T15:41:45.884Z,4.18
2022-10-19T15:44:48.426Z,4.30
2022-10-19T15:47:15.052Z,4.80
2022-10-19T15:49:41.591Z,3.88
2022-10-19T15:52:19.761Z,3.78
2022-10-19T15:54:50.883Z,3.47
2022-10-19T15:57:38.354Z,3.25
2022-10-19T16:00:17.001Z,3.50
2022-10-19T16:02:43.783Z,3.40
2022-10-19T16:05:10.971Z,3.10
2022-10-19T16:07:40.127Z,3.05
2022-10-19T16:10:09.084Z,3.13
2022-10-19T16:12:35.673Z,2.83
2022-10-19T16:15:02.346Z,3.17
2022-10-19T16:17:28.965Z,2.83
2022-10-19T16:19:55.577Z,2.80
2022-10-19T16:22:22.219Z,2.83
2022-10-19T16:24:48.953Z,3.08
2022-10-19T16:27:16.411Z,2.83
2022-10-19T16:29:44.397Z,3.15
2022-10-19T16:32:11.219Z,5.68
2022-10-19T16:34:38.106Z,7.65
2022-10-19T16:37:06.900Z,4.43
2022-10-19T16:39:34.113Z,4.00
2022-10-19T16:42:00.706Z,3.47
2022-10-19T16:44:27.358Z,3.35
2022-10-19T16:46:56.658Z,3.60
2022-10-19T16:49:23.337Z,3.60
2022-10-19T16:51:52.047Z,3.78
2022-10-19T16:54:21.676Z,3.50
2022-10-19T16:56:48.620Z,3.50
2022-10-19T16:59:18.128Z,3.95
2022-10-19T17:01:46.263Z,3.80
2022-10-19T17:04:14.487Z,4.03
2022-10-19T17:06:41.483Z,4.10
2022-10-19T17:11:55.902Z,4.13
2022-10-19T17:14:22.528Z,4.22
2022-10-19T17:16:49.250Z,3.63
2022-10-19T17:19:15.882Z,4.13
2022-10-19T17:21:42.775Z,3.83
2022-10-19T17:24:20.091Z,3.88
2022-10-19T17:26:49.367Z,4.25
2022-10-19T17:29:16.124Z,4.28
2022-10-19T17:31:43.327Z,17.67
2022-10-19T17:34:10.378Z,18.48
2022-10-19T17:39:19.287Z,6.10
2022-10-19T17:41:47.564Z,4.40
2022-10-19T17:44:15.175Z,4.22
2022-10-19T17:46:42.033Z,4.70
2022-10-19T17:49:09.892Z,4.72
2022-10-19T17:51:37.977Z,4.90
2022-10-19T17:54:12.914Z,5.93
2022-10-19T17:56:40.647Z,5.72
2022-10-19T17:59:09.108Z,6.25
2022-10-19T18:01:37.366Z,6.07
2022-10-19T18:04:04.554Z,5.60
2022-10-19T18:06:33.597Z,5.60
2022-10-19T18:09:02.208Z,5.60
2022-10-19T18:11:31.685Z,6.10
2022-10-19T18:14:00.891Z,5.40
2022-10-19T18:16:42.284Z,5.28
2022-10-19T18:19:09.308Z,5.55
2022-10-19T18:21:39.937Z,5.97
2022-10-19T18:24:12.674Z,5.45
2022-10-19T18:26:41.735Z,5.65
2022-10-19T18:29:26.904Z,5.47
2022-10-19T18:31:53.825Z,5.88
2022-10-19T18:34:24.319Z,5.72
2022-10-19T18:36:52.030Z,5.63
2022-10-19T18:39:19.108Z,6.28
2022-10-19T18:41:46.033Z,6.18
2022-10-19T18:44:13.623Z,6.28
2022-10-19T18:46:40.748Z,5.97
2022-10-19T18:49:08.666Z,5.78
2022-10-19T18:51:35.820Z,5.95
2022-10-19T18:54:02.529Z,5.90
2022-10-19T18:56:33.466Z,6.30
2022-10-19T18:59:00.089Z,6.13
2022-10-19T19:01:28.417Z,5.97
2022-10-19T19:03:58.710Z,5.75
2022-10-19T19:06:29.440Z,5.82
2022-10-19T19:08:57.577Z,6.50
2022-10-19T19:11:26.635Z,6.10
2022-10-19T19:13:55.904Z,10.00
2022-10-19T19:16:23.699Z,7.00
2022-10-19T19:18:50.845Z,6.63
2022-10-19T19:21:21.168Z,6.85
2022-10-19T19:23:48.581Z,7.10
2022-10-19T19:26:16.737Z,6.53
2022-10-19T19:28:46.418Z,6.75
2022-10-19T19:31:17.379Z,6.57
2022-10-19T19:33:45.503Z,20.17
2022-10-19T19:36:13.939Z,9.57
2022-10-19T19:38:40.551Z,10.82
2022-10-19T19:41:09.021Z,14.52
2022-10-19T19:43:37.097Z,22.27
2022-10-19T19:46:08.974Z,16.65
2022-10-19T19:48:37.267Z,23.55
2022-10-19T19:51:04.151Z,10.38
2022-10-19T19:53:30.959Z,8.40
2022-10-19T19:55:57.596Z,9.38
2022-10-19T19:58:24.252Z,7.63
2022-10-19T20:00:50.852Z,8.82
2022-10-19T20:03:17.463Z,8.35
2022-10-19T20:05:44.070Z,7.40
2022-10-19T20:08:11.282Z,7.38
2022-10-19T20:10:39.631Z,9.00
2022-10-19T20:13:06.302Z,7.55
2022-10-19T20:15:33.302Z,8.10
2022-10-19T20:17:59.918Z,7.40
2022-10-19T20:20:26.628Z,24.48
2022-10-19T20:22:53.223Z,16.95
2022-10-19T20:25:19.915Z,10.25
2022-10-19T20:27:46.489Z,8.27
2022-10-19T20:30:13.098Z,9.32
2022-10-19T20:32:39.805Z,9.43
2022-10-19T20:35:07.508Z,11.50
2022-10-19T20:37:34.198Z,13.23
2022-10-19T20:40:03.366Z,8.60
2022-10-19T20:42:34.245Z,8.35
2022-10-19T20:45:01.012Z,10.00
2022-10-19T20:47:27.656Z,9.10
2022-10-19T20:49:54.290Z,7.53
2022-10-19T20:52:21.016Z,6.90
2022-10-19T20:54:48.478Z,7.60
2022-10-19T20:57:15.120Z,6.40
2022-10-19T20:59:43.895Z,6.95
2022-10-19T21:02:11.007Z,6.93
2022-10-19T21:04:37.677Z,7.30
2022-10-19T21:07:05.144Z,5.97
2022-10-19T21:09:32.372Z,6.28
2022-10-19T21:11:59.180Z,5.78
2022-10-19T21:14:29.069Z,6.30
2022-10-19T21:19:25.486Z,6.47
2022-10-19T21:21:57.766Z,6.45
2022-10-19T21:24:28.131Z,6.25
2022-10-19T21:26:54.742Z,6.03
2022-10-19T21:29:21.555Z,5.55
2022-10-19T21:31:50.135Z,5.78
2022-10-19T21:34:21.003Z,5.43
2022-10-19T21:36:48.008Z,5.68
2022-10-19T21:39:14.775Z,5.10
2022-10-19T21:41:41.405Z,5.50
2022-10-19T21:44:08.491Z,5.68
2022-10-19T21:46:35.237Z,5.28
2022-10-19T21:49:02.020Z,5.40
2022-10-19T21:51:42.009Z,5.20
2022-10-19T21:56:43.518Z,5.10
2022-10-19T21:59:10.195Z,5.13
2022-10-19T22:01:40.137Z,4.97
2022-10-19T22:04:12.177Z,4.85
2022-10-19T22:06:39.640Z,4.95
2022-10-19T22:09:08.466Z,4.90
2022-10-19T22:11:35.400Z,5.20
2022-10-19T22:14:03.134Z,4.63
2022-10-19T22:16:30.845Z,5.30
2022-10-19T22:18:58.052Z,5.53
2022-10-19T22:21:28.546Z,5.15
2022-10-19T22:24:01.659Z,6.68
2022-10-19T22:26:38.211Z,6.13
2022-10-19T22:29:06.951Z,5.50
2022-10-19T22:31:35.441Z,6.38
2022-10-19T22:34:05.221Z,6.85
2022-10-19T22:36:31.954Z,6.70
2022-10-19T22:38:58.531Z,5.78
2022-10-19T22:41:25.136Z,5.70
2022-10-19T22:43:51.822Z,5.28
2022-10-19T22:46:18.404Z,5.90
2022-10-19T22:48:45.036Z,5.47
2022-10-19T22:51:11.766Z,5.80
2022-10-19T22:53:38.374Z,5.65
2022-10-19T22:56:05.659Z,6.10
2022-10-19T22:58:32.367Z,6.00
2022-10-19T23:01:17.289Z,6.15
2022-10-19T23:03:44.205Z,5.95
2022-10-19T23:06:13.934Z,6.70
2022-10-19T23:08:41.002Z,5.80
2022-10-19T23:11:07.670Z,5.68
2022-10-19T23:13:34.310Z,6.05
2022-10-19T23:16:01.152Z,5.75
2022-10-19T23:18:31.759Z,5.72
2022-10-19T23:21:01.026Z,5.55
2022-10-19T23:23:28.756Z,6.05
2022-10-19T23:26:06.423Z,7.00
2022-10-19T23:28:34.828Z,6.07
2022-10-19T23:31:10.782Z,7.13
2022-10-19T23:33:37.517Z,6.60
2022-10-19T23:36:08.361Z,6.88
2022-10-19T23:38:36.870Z,7.30
2022-10-19T23:41:03.944Z,6.75
2022-10-19T23:43:30.646Z,7.18
2022-10-19T23:45:57.317Z,6.88
2022-10-19T23:48:24.215Z,6.90
2022-10-19T23:51:17.257Z,6.72
2022-10-19T23:53:45.540Z,6.93
2022-10-19T23:56:13.718Z,7.47
2022-10-19T23:58:40.872Z,6.97
